sensor_id;sensor_type;location;lat;lon;timestamp;temperature;humidity
19813;DHT22;10066;48.108;11.448;2022-07-29T00:01:43;19.80;99.90
19813;DHT22;10066;48.108;11.448;2022-07-29T00:04:11;19.80;99.90
19813;DHT22;10066;48.108;11.448;2022-07-29T00:06:38;19.70;99.90
19813;DHT22;10066;48.108;11.448;2022-07-29T00:09:07;19.70;99.90
19813;DHT22;10066;48.108;11.448;2022-07-29T00:11:34;19.70;99.90
19813;DHT22;10066;48.108;11.448;2022-07-29T00:14:01;19.70;99.90
19813;DHT22;10066;48.108;11.448;2022-07-29T00:16:28;19.70;99.90
19813;DHT22;10066;48.108;11.448;2022-07-29T00:18:55;19.70;99.90
19813;DHT22;10066;48.108;11.448;2022-07-29T00:21:22;19.70;99.90
19813;DHT22;10066;48.108;11.448;2022-07-29T00:23:49;19.70;99.90
19813;DHT22;10066;48.108;11.448;2022-07-29T00:26:18;19.70;99.90
19813;DHT22;10066;48.108;11.448;2022-07-29T00:28:45;19.60;99.90
19813;DHT22;10066;48.108;11.448;2022-07-29T00:31:12;19.60;99.90
19813;DHT22;10066;48.108;11.448;2022-07-29T00:33:40;19.70;99.90
19813;DHT22;10066;48.108;11.448;2022-07-29T00:36:07;19.60;99.90
19813;DHT22;10066;48.108;11.448;2022-07-29T00:38:33;19.60;99.90
19813;DHT22;10066;48.108;11.448;2022-07-29T00:41:00;19.60;99.90
19813;DHT22;10066;48.108;11.448;2022-07-29T00:43:29;19.60;99.90
19813;DHT22;10066;48.108;11.448;2022-07-29T00:45:56;19.70;99.90
19813;DHT22;10066;48.108;11.448;2022-07-29T00:48:23;19.70;99.90
19813;DHT22;10066;48.108;11.448;2022-07-29T00:50:50;19.70;99.90
19813;DHT22;10066;48.108;11.448;2022-07-29T00:53:17;19.60;99.90
19813;DHT22;10066;48.108;11.448;2022-07-29T00:55:45;19.70;99.90
19813;DHT22;10066;48.108;11.448;2022-07-29T00:58:13;19.70;99.90
19813;DHT22;10066;48.108;11.448;2022-07-29T01:00:41;19.80;99.90
19813;DHT22;10066;48.108;11.448;2022-07-29T01:03:09;19.80;99.90
19813;DHT22;10066;48.108;11.448;2022-07-29T01:05:36;19.80;99.90
19813;DHT22;10066;48.108;11.448;2022-07-29T01:08:03;19.80;99.90
19813;DHT22;10066;48.108;11.448;2022-07-29T01:10:32;19.80;99.90
19813;DHT22;10066;48.108;11.448;2022-07-29T01:13:01;19.80;99.90
19813;DHT22;10066;48.108;11.448;2022-07-29T01:15:28;19.80;99.90
19813;DHT22;10066;48.108;11.448;2022-07-29T01:18:01;19.80;99.90
19813;DHT22;10066;48.108;11.448;2022-07-29T01:20:48;19.80;99.90
19813;DHT22;10066;48.108;11.448;2022-07-29T01:23:50;19.70;99.90
19813;DHT22;10066;48.108;11.448;2022-07-29T01:26:28;19.70;99.90
19813;DHT22;10066;48.108;11.448;2022-07-29T01:29:02;19.70;99.90
19813;DHT22;10066;48.108;11.448;2022-07-29T01:31:35;19.70;99.90
19813;DHT22;10066;48.108;11.448;2022-07-29T01:34:07;19.70;99.90
19813;DHT22;10066;48.108;11.448;2022-07-29T01:36:37;19.60;99.90
19813;DHT22;10066;48.108;11.448;2022-07-29T01:39:11;19.60;99.90
19813;DHT22;10066;48.108;11.448;2022-07-29T01:41:48;19.60;99.90
19813;DHT22;10066;48.108;11.448;2022-07-29T01:44:20;19.60;99.90
19813;DHT22;10066;48.108;11.448;2022-07-29T01:46:54;19.60;99.90
19813;DHT22;10066;48.108;11.448;2022-07-29T01:49:27;19.60;99.90
19813;DHT22;10066;48.108;11.448;2022-07-29T01:51:59;19.60;99.90
19813;DHT22;10066;48.108;11.448;2022-07-29T01:54:32;19.50;99.90
19813;DHT22;10066;48.108;11.448;2022-07-29T01:57:02;19.50;99.90
19813;DHT22;10066;48.108;11.448;2022-07-29T01:59:33;19.50;99.90
19813;DHT22;10066;48.108;11.448;2022-07-29T02:04:38;19.40;99.90
19813;DHT22;10066;48.108;11.448;2022-07-29T02:07:07;19.40;99.90
19813;DHT22;10066;48.108;11.448;2022-07-29T02:09:38;19.40;99.90
19813;DHT22;10066;48.108;11.448;2022-07-29T02:12:07;19.40;99.90
19813;DHT22;10066;48.108;11.448;2022-07-29T02:14:38;19.40;99.90
19813;DHT22;10066;48.108;11.448;2022-07-29T02:17:06;19.40;99.90
19813;DHT22;10066;48.108;11.448;2022-07-29T02:19:33;19.40;99.90
19813;DHT22;10066;48.108;11.448;2022-07-29T02:22:01;19.40;99.90
19813;DHT22;10066;48.108;11.448;2022-07-29T02:24:30;19.40;99.90
19813;DHT22;10066;48.108;11.448;2022-07-29T02:26:58;19.30;99.90
19813;DHT22;10066;48.108;11.448;2022-07-29T02:29:27;19.30;99.90
19813;DHT22;10066;48.108;11.448;2022-07-29T02:31:58;19.30;99.90
19813;DHT22;10066;48.108;11.448;2022-07-29T02:34:27;19.30;99.90
19813;DHT22;10066;48.108;11.448;2022-07-29T02:36:55;19.30;99.90
19813;DHT22;10066;48.108;11.448;2022-07-29T02:39:23;19.30;99.90
19813;DHT22;10066;48.108;11.448;2022-07-29T02:41:55;19.30;99.90
19813;DHT22;10066;48.108;11.448;2022-07-29T02:44:24;19.30;99.90
19813;DHT22;10066;48.108;11.448;2022-07-29T02:46:57;19.30;99.90
19813;DHT22;10066;48.108;11.448;2022-07-29T02:49:32;19.30;99.90
19813;DHT22;10066;48.108;11.448;2022-07-29T02:52:03;19.30;99.90
19813;DHT22;10066;48.108;11.448;2022-07-29T02:54:46;19.30;99.90
19813;DHT22;10066;48.108;11.448;2022-07-29T02:57:18;19.20;99.90
19813;DHT22;10066;48.108;11.448;2022-07-29T02:59:49;19.20;99.90
19813;DHT22;10066;48.108;11.448;2022-07-29T03:02:20;19.20;99.90
19813;DHT22;10066;48.108;11.448;2022-07-29T03:04:48;19.20;99.90
19813;DHT22;10066;48.108;11.448;2022-07-29T03:07:18;19.10;99.90
19813;DHT22;10066;48.108;11.448;2022-07-29T03:09:46;19.10;99.90
19813;DHT22;10066;48.108;11.448;2022-07-29T03:12:14;19.00;99.90
19813;DHT22;10066;48.108;11.448;2022-07-29T03:14:42;18.90;99.90
19813;DHT22;10066;48.108;11.448;2022-07-29T03:17:10;18.90;99.90
19813;DHT22;10066;48.108;11.448;2022-07-29T03:19:39;18.70;99.90
19813;DHT22;10066;48.108;11.448;2022-07-29T03:22:07;18.60;99.90
19813;DHT22;10066;48.108;11.448;2022-07-29T03:24:35;18.60;99.90
19813;DHT22;10066;48.108;11.448;2022-07-29T03:27:03;18.50;99.90
19813;DHT22;10066;48.108;11.448;2022-07-29T03:29:30;18.50;99.90
19813;DHT22;10066;48.108;11.448;2022-07-29T03:31:57;18.40;99.90
19813;DHT22;10066;48.108;11.448;2022-07-29T03:34:24;18.20;99.90
19813;DHT22;10066;48.108;11.448;2022-07-29T03:36:53;18.10;99.90
19813;DHT22;10066;48.108;11.448;2022-07-29T03:41:52;17.90;99.90
19813;DHT22;10066;48.108;11.448;2022-07-29T03:44:21;17.80;99.90
19813;DHT22;10066;48.108;11.448;2022-07-29T03:51:47;17.60;99.90
19813;DHT22;10066;48.108;11.448;2022-07-29T03:54:16;17.50;99.90
19813;DHT22;10066;48.108;11.448;2022-07-29T03:56:45;17.50;99.90
19813;DHT22;10066;48.108;11.448;2022-07-29T03:59:13;17.40;99.90
19813;DHT22;10066;48.108;11.448;2022-07-29T04:01:42;17.30;99.90
19813;DHT22;10066;48.108;11.448;2022-07-29T04:04:10;17.30;99.90
19813;DHT22;10066;48.108;11.448;2022-07-29T04:06:38;17.20;99.90
19813;DHT22;10066;48.108;11.448;2022-07-29T04:09:06;17.20;99.90
19813;DHT22;10066;48.108;11.448;2022-07-29T04:11:35;17.20;99.90
19813;DHT22;10066;48.108;11.448;2022-07-29T04:14:03;17.20;99.90
19813;DHT22;10066;48.108;11.448;2022-07-29T04:16:30;17.20;99.90
19813;DHT22;10066;48.108;11.448;2022-07-29T04:18:57;17.20;99.90
19813;DHT22;10066;48.108;11.448;2022-07-29T04:21:24;17.20;99.90
19813;DHT22;10066;48.108;11.448;2022-07-29T04:23:51;17.20;99.90
19813;DHT22;10066;48.108;11.448;2022-07-29T04:26:19;17.20;99.90
19813;DHT22;10066;48.108;11.448;2022-07-29T04:28:47;17.20;99.90
19813;DHT22;10066;48.108;11.448;2022-07-29T04:31:14;17.20;99.90
19813;DHT22;10066;48.108;11.448;2022-07-29T04:33:41;17.20;99.90
19813;DHT22;10066;48.108;11.448;2022-07-29T04:36:08;17.30;99.90
19813;DHT22;10066;48.108;11.448;2022-07-29T04:38:37;17.40;99.90
19813;DHT22;10066;48.108;11.448;2022-07-29T04:41:05;17.60;99.90
19813;DHT22;10066;48.108;11.448;2022-07-29T04:43:32;17.70;99.90
19813;DHT22;10066;48.108;11.448;2022-07-29T04:46:01;17.80;99.90
19813;DHT22;10066;48.108;11.448;2022-07-29T04:48:28;18.00;99.90
19813;DHT22;10066;48.108;11.448;2022-07-29T04:50:55;18.10;99.90
19813;DHT22;10066;48.108;11.448;2022-07-29T04:53:22;18.30;99.90
19813;DHT22;10066;48.108;11.448;2022-07-29T04:55:49;18.60;99.90
19813;DHT22;10066;48.108;11.448;2022-07-29T04:58:16;18.80;99.90
19813;DHT22;10066;48.108;11.448;2022-07-29T05:00:44;19.00;99.90
19813;DHT22;10066;48.108;11.448;2022-07-29T05:03:12;19.20;99.90
19813;DHT22;10066;48.108;11.448;2022-07-29T05:05:39;19.30;99.90
19813;DHT22;10066;48.108;11.448;2022-07-29T05:08:06;19.60;99.90
19813;DHT22;10066;48.108;11.448;2022-07-29T05:10:33;19.80;99.90
19813;DHT22;10066;48.108;11.448;2022-07-29T05:13:03;20.00;99.90
19813;DHT22;10066;48.108;11.448;2022-07-29T05:15:31;20.20;99.90
19813;DHT22;10066;48.108;11.448;2022-07-29T05:17:58;20.40;99.90
19813;DHT22;10066;48.108;11.448;2022-07-29T05:20:26;20.50;99.90
19813;DHT22;10066;48.108;11.448;2022-07-29T05:22:54;20.60;99.90
19813;DHT22;10066;48.108;11.448;2022-07-29T05:25:20;20.70;99.90
19813;DHT22;10066;48.108;11.448;2022-07-29T05:27:48;20.80;99.90
19813;DHT22;10066;48.108;11.448;2022-07-29T05:30:14;20.80;99.90
19813;DHT22;10066;48.108;11.448;2022-07-29T05:32:41;20.80;99.90
19813;DHT22;10066;48.108;11.448;2022-07-29T05:35:09;20.80;99.90
19813;DHT22;10066;48.108;11.448;2022-07-29T05:37:37;20.80;99.90
19813;DHT22;10066;48.108;11.448;2022-07-29T05:40:05;20.80;99.90
19813;DHT22;10066;48.108;11.448;2022-07-29T05:42:32;20.80;99.90
19813;DHT22;10066;48.108;11.448;2022-07-29T05:44:59;20.80;99.90
19813;DHT22;10066;48.108;11.448;2022-07-29T05:47:26;20.90;99.90
19813;DHT22;10066;48.108;11.448;2022-07-29T05:49:53;20.90;99.90
19813;DHT22;10066;48.108;11.448;2022-07-29T05:52:20;20.90;99.90
19813;DHT22;10066;48.108;11.448;2022-07-29T05:54:49;20.90;99.90
19813;DHT22;10066;48.108;11.448;2022-07-29T05:57:17;21.00;99.90
19813;DHT22;10066;48.108;11.448;2022-07-29T05:59:45;21.00;99.90
19813;DHT22;10066;48.108;11.448;2022-07-29T06:02:12;21.00;99.90
19813;DHT22;10066;48.108;11.448;2022-07-29T06:04:39;21.00;99.90
19813;DHT22;10066;48.108;11.448;2022-07-29T06:07:06;21.00;99.90
19813;DHT22;10066;48.108;11.448;2022-07-29T06:09:34;21.10;99.90
19813;DHT22;10066;48.108;11.448;2022-07-29T06:12:03;21.10;99.90
19813;DHT22;10066;48.108;11.448;2022-07-29T06:14:30;21.60;99.90
19813;DHT22;10066;48.108;11.448;2022-07-29T06:16:58;22.80;99.90
19813;DHT22;10066;48.108;11.448;2022-07-29T06:19:26;24.00;99.90
19813;DHT22;10066;48.108;11.448;2022-07-29T06:21:53;25.20;99.90
19813;DHT22;10066;48.108;11.448;2022-07-29T06:24:19;26.20;99.90
19813;DHT22;10066;48.108;11.448;2022-07-29T06:26:46;27.00;99.90
19813;DHT22;10066;48.108;11.448;2022-07-29T06:29:14;28.60;94.60
19813;DHT22;10066;48.108;11.448;2022-07-29T06:31:42;28.30;95.40
19813;DHT22;10066;48.108;11.448;2022-07-29T06:34:09;28.90;93.50
19813;DHT22;10066;48.108;11.448;2022-07-29T06:36:37;29.20;91.30
19813;DHT22;10066;48.108;11.448;2022-07-29T06:39:04;29.70;89.10
19813;DHT22;10066;48.108;11.448;2022-07-29T06:41:32;30.10;83.90
19813;DHT22;10066;48.108;11.448;2022-07-29T06:44:00;30.40;81.20
19813;DHT22;10066;48.108;11.448;2022-07-29T06:46:28;30.70;78.80
19813;DHT22;10066;48.108;11.448;2022-07-29T06:48:55;30.90;77.30
19813;DHT22;10066;48.108;11.448;2022-07-29T06:51:22;31.00;75.60
19813;DHT22;10066;48.108;11.448;2022-07-29T06:53:50;30.90;74.20
19813;DHT22;10066;48.108;11.448;2022-07-29T06:56:17;30.70;73.30
19813;DHT22;10066;48.108;11.448;2022-07-29T06:58:43;30.50;74.60
19813;DHT22;10066;48.108;11.448;2022-07-29T07:01:10;29.70;76.40
19813;DHT22;10066;48.108;11.448;2022-07-29T07:03:39;28.80;77.50
19813;DHT22;10066;48.108;11.448;2022-07-29T07:06:07;27.90;78.70
19813;DHT22;10066;48.108;11.448;2022-07-29T07:08:35;27.20;80.90
19813;DHT22;10066;48.108;11.448;2022-07-29T07:11:02;26.60;82.30
19813;DHT22;10066;48.108;11.448;2022-07-29T07:13:29;26.10;85.20
19813;DHT22;10066;48.108;11.448;2022-07-29T07:16:00;25.70;86.40
19813;DHT22;10066;48.108;11.448;2022-07-29T07:18:27;25.40;91.20
19813;DHT22;10066;48.108;11.448;2022-07-29T07:20:56;25.20;88.60
19813;DHT22;10066;48.108;11.448;2022-07-29T07:23:23;24.90;89.40
19813;DHT22;10066;48.108;11.448;2022-07-29T07:25:50;24.80;90.40
19813;DHT22;10066;48.108;11.448;2022-07-29T07:28:18;24.60;90.60
19813;DHT22;10066;48.108;11.448;2022-07-29T07:30:45;24.50;90.60
19813;DHT22;10066;48.108;11.448;2022-07-29T07:33:12;24.50;91.30
19813;DHT22;10066;48.108;11.448;2022-07-29T07:35:40;24.50;91.80
19813;DHT22;10066;48.108;11.448;2022-07-29T07:38:25;24.50;92.30
19813;DHT22;10066;48.108;11.448;2022-07-29T07:40:52;24.40;92.10
19813;DHT22;10066;48.108;11.448;2022-07-29T07:43:19;24.50;92.60
19813;DHT22;10066;48.108;11.448;2022-07-29T07:45:47;24.20;91.70
19813;DHT22;10066;48.108;11.448;2022-07-29T07:48:14;24.50;91.60
19813;DHT22;10066;48.108;11.448;2022-07-29T07:50:41;24.50;90.90
19813;DHT22;10066;48.108;11.448;2022-07-29T07:53:10;24.50;91.80
19813;DHT22;10066;48.108;11.448;2022-07-29T07:55:39;24.50;91.40
19813;DHT22;10066;48.108;11.448;2022-07-29T07:58:06;24.60;91.50
19813;DHT22;10066;48.108;11.448;2022-07-29T08:00:33;24.70;91.20
19813;DHT22;10066;48.108;11.448;2022-07-29T08:03:00;24.70;91.20
19813;DHT22;10066;48.108;11.448;2022-07-29T08:05:28;24.80;91.40
19813;DHT22;10066;48.108;11.448;2022-07-29T08:07:55;24.90;91.20
19813;DHT22;10066;48.108;11.448;2022-07-29T08:10:24;24.90;90.40
19813;DHT22;10066;48.108;11.448;2022-07-29T08:13:09;24.90;89.80
19813;DHT22;10066;48.108;11.448;2022-07-29T08:15:39;25.00;90.50
19813;DHT22;10066;48.108;11.448;2022-07-29T08:18:06;25.10;90.50
19813;DHT22;10066;48.108;11.448;2022-07-29T08:20:33;25.10;90.00
19813;DHT22;10066;48.108;11.448;2022-07-29T08:23:01;25.20;90.20
19813;DHT22;10066;48.108;11.448;2022-07-29T08:25:29;25.30;89.10
19813;DHT22;10066;48.108;11.448;2022-07-29T08:27:56;25.30;88.80
19813;DHT22;10066;48.108;11.448;2022-07-29T08:30:23;25.40;88.70
19813;DHT22;10066;48.108;11.448;2022-07-29T08:32:50;25.50;89.10
19813;DHT22;10066;48.108;11.448;2022-07-29T08:35:19;25.60;88.10
19813;DHT22;10066;48.108;11.448;2022-07-29T08:37:45;25.70;87.10
19813;DHT22;10066;48.108;11.448;2022-07-29T08:40:15;25.80;87.70
19813;DHT22;10066;48.108;11.448;2022-07-29T08:42:43;25.90;87.20
19813;DHT22;10066;48.108;11.448;2022-07-29T08:45:11;26.00;86.60
19813;DHT22;10066;48.108;11.448;2022-07-29T08:47:39;26.10;87.10
19813;DHT22;10066;48.108;11.448;2022-07-29T08:50:07;26.10;84.60
19813;DHT22;10066;48.108;11.448;2022-07-29T08:52:37;26.10;84.20
19813;DHT22;10066;48.108;11.448;2022-07-29T08:55:05;26.00;84.20
19813;DHT22;10066;48.108;11.448;2022-07-29T08:57:34;26.00;83.20
19813;DHT22;10066;48.108;11.448;2022-07-29T09:00:05;25.90;83.20
19813;DHT22;10066;48.108;11.448;2022-07-29T09:02:39;25.90;83.20
19813;DHT22;10066;48.108;11.448;2022-07-29T09:05:08;25.90;84.40
19813;DHT22;10066;48.108;11.448;2022-07-29T09:07:35;26.00;85.20
19813;DHT22;10066;48.108;11.448;2022-07-29T09:10:04;26.10;85.60
19813;DHT22;10066;48.108;11.448;2022-07-29T09:12:32;26.20;84.00
19813;DHT22;10066;48.108;11.448;2022-07-29T09:14:59;26.30;84.40
19813;DHT22;10066;48.108;11.448;2022-07-29T09:17:45;26.40;84.30
19813;DHT22;10066;48.108;11.448;2022-07-29T09:20:15;26.40;85.40
19813;DHT22;10066;48.108;11.448;2022-07-29T09:22:42;26.40;84.50
19813;DHT22;10066;48.108;11.448;2022-07-29T09:25:12;26.40;85.10
19813;DHT22;10066;48.108;11.448;2022-07-29T09:27:52;26.50;84.70
19813;DHT22;10066;48.108;11.448;2022-07-29T09:30:19;26.50;83.10
19813;DHT22;10066;48.108;11.448;2022-07-29T09:32:59;26.50;83.20
19813;DHT22;10066;48.108;11.448;2022-07-29T09:35:27;26.40;83.70
19813;DHT22;10066;48.108;11.448;2022-07-29T09:37:55;26.50;86.10
19813;DHT22;10066;48.108;11.448;2022-07-29T09:40:24;26.70;86.10
19813;DHT22;10066;48.108;11.448;2022-07-29T09:42:52;26.90;84.90
19813;DHT22;10066;48.108;11.448;2022-07-29T09:45:28;27.00;84.60
19813;DHT22;10066;48.108;11.448;2022-07-29T09:47:57;26.90;80.30
19813;DHT22;10066;48.108;11.448;2022-07-29T09:50:38;26.90;80.90
19813;DHT22;10066;48.108;11.448;2022-07-29T09:53:06;26.90;82.20
19813;DHT22;10066;48.108;11.448;2022-07-29T09:55:48;26.90;80.90
19813;DHT22;10066;48.108;11.448;2022-07-29T09:58:17;27.00;82.10
19813;DHT22;10066;48.108;11.448;2022-07-29T10:00:45;27.10;82.00
19813;DHT22;10066;48.108;11.448;2022-07-29T10:03:14;27.10;81.70
19813;DHT22;10066;48.108;11.448;2022-07-29T10:05:42;27.20;81.80
19813;DHT22;10066;48.108;11.448;2022-07-29T10:08:10;27.30;82.10
19813;DHT22;10066;48.108;11.448;2022-07-29T10:10:39;27.40;82.20
19813;DHT22;10066;48.108;11.448;2022-07-29T10:13:08;27.40;81.00
19813;DHT22;10066;48.108;11.448;2022-07-29T10:15:37;27.40;81.40
19813;DHT22;10066;48.108;11.448;2022-07-29T10:18:07;27.40;81.60
19813;DHT22;10066;48.108;11.448;2022-07-29T10:20:36;27.40;81.80
19813;DHT22;10066;48.108;11.448;2022-07-29T10:23:04;27.40;82.10
19813;DHT22;10066;48.108;11.448;2022-07-29T10:25:31;27.40;82.00
19813;DHT22;10066;48.108;11.448;2022-07-29T10:27:58;27.30;82.00
19813;DHT22;10066;48.108;11.448;2022-07-29T10:30:29;27.30;82.00
19813;DHT22;10066;48.108;11.448;2022-07-29T10:33:18;27.20;81.50
19813;DHT22;10066;48.108;11.448;2022-07-29T10:36:09;27.10;82.10
19813;DHT22;10066;48.108;11.448;2022-07-29T10:38:52;27.10;81.00
19813;DHT22;10066;48.108;11.448;2022-07-29T10:41:57;27.10;81.10
19813;DHT22;10066;48.108;11.448;2022-07-29T10:44:27;27.00;80.40
19813;DHT22;10066;48.108;11.448;2022-07-29T10:46:54;27.00;81.20
19813;DHT22;10066;48.108;11.448;2022-07-29T10:49:23;26.90;81.90
19813;DHT22;10066;48.108;11.448;2022-07-29T10:51:59;26.90;82.30
19813;DHT22;10066;48.108;11.448;2022-07-29T10:54:44;26.90;83.10
19813;DHT22;10066;48.108;11.448;2022-07-29T10:57:18;27.00;84.70
19813;DHT22;10066;48.108;11.448;2022-07-29T10:59:47;27.00;84.60
19813;DHT22;10066;48.108;11.448;2022-07-29T11:02:42;27.10;83.10
19813;DHT22;10066;48.108;11.448;2022-07-29T11:05:11;27.20;81.80
19813;DHT22;10066;48.108;11.448;2022-07-29T11:08:19;27.20;81.90
19813;DHT22;10066;48.108;11.448;2022-07-29T11:10:52;27.30;81.40
19813;DHT22;10066;48.108;11.448;2022-07-29T11:13:50;27.20;82.10
19813;DHT22;10066;48.108;11.448;2022-07-29T11:16:18;27.20;82.30
19813;DHT22;10066;48.108;11.448;2022-07-29T11:19:21;27.30;83.50
19813;DHT22;10066;48.108;11.448;2022-07-29T11:21:48;27.30;82.00
19813;DHT22;10066;48.108;11.448;2022-07-29T11:24:20;27.40;83.30
19813;DHT22;10066;48.108;11.448;2022-07-29T11:27:07;27.50;82.20
19813;DHT22;10066;48.108;11.448;2022-07-29T11:29:36;27.20;81.30
19813;DHT22;10066;48.108;11.448;2022-07-29T11:32:09;27.50;81.50
19813;DHT22;10066;48.108;11.448;2022-07-29T11:34:37;27.50;82.00
19813;DHT22;10066;48.108;11.448;2022-07-29T11:37:19;27.50;81.30
19813;DHT22;10066;48.108;11.448;2022-07-29T11:40:11;27.50;79.20
19813;DHT22;10066;48.108;11.448;2022-07-29T11:42:51;27.50;77.60
19813;DHT22;10066;48.108;11.448;2022-07-29T11:45:25;27.60;79.00
19813;DHT22;10066;48.108;11.448;2022-07-29T11:48:00;27.70;78.80
19813;DHT22;10066;48.108;11.448;2022-07-29T11:50:31;27.80;77.00
19813;DHT22;10066;48.108;11.448;2022-07-29T11:53:00;27.80;74.10
19813;DHT22;10066;48.108;11.448;2022-07-29T11:55:28;27.70;73.30
19813;DHT22;10066;48.108;11.448;2022-07-29T11:57:59;27.70;73.60
19813;DHT22;10066;48.108;11.448;2022-07-29T12:00:29;27.90;75.30
19813;DHT22;10066;48.108;11.448;2022-07-29T12:02:58;28.00;73.50
19813;DHT22;10066;48.108;11.448;2022-07-29T12:05:36;27.90;74.40
19813;DHT22;10066;48.108;11.448;2022-07-29T12:08:12;28.10;74.70
19813;DHT22;10066;48.108;11.448;2022-07-29T12:10:41;26.10;72.70
19813;DHT22;10066;48.108;11.448;2022-07-29T12:13:09;28.30;74.50
19813;DHT22;10066;48.108;11.448;2022-07-29T12:15:37;28.40;74.90
19813;DHT22;10066;48.108;11.448;2022-07-29T12:18:11;28.50;74.90
19813;DHT22;10066;48.108;11.448;2022-07-29T12:20:38;28.60;74.00
19813;DHT22;10066;48.108;11.448;2022-07-29T12:23:07;28.70;74.10
19813;DHT22;10066;48.108;11.448;2022-07-29T12:25:37;28.50;69.40
19813;DHT22;10066;48.108;11.448;2022-07-29T12:28:08;28.30;70.70
19813;DHT22;10066;48.108;11.448;2022-07-29T12:30:38;28.30;71.60
19813;DHT22;10066;48.108;11.448;2022-07-29T12:33:18;28.30;72.20
19813;DHT22;10066;48.108;11.448;2022-07-29T12:35:48;28.30;73.30
19813;DHT22;10066;48.108;11.448;2022-07-29T12:38:15;28.30;72.40
19813;DHT22;10066;48.108;11.448;2022-07-29T12:40:44;28.40;71.60
19813;DHT22;10066;48.108;11.448;2022-07-29T12:43:15;28.30;71.00
19813;DHT22;10066;48.108;11.448;2022-07-29T12:45:44;28.30;71.00
19813;DHT22;10066;48.108;11.448;2022-07-29T12:48:11;28.10;71.20
19813;DHT22;10066;48.108;11.448;2022-07-29T12:50:53;28.10;71.20
19813;DHT22;10066;48.108;11.448;2022-07-29T12:53:20;27.80;71.00
19813;DHT22;10066;48.108;11.448;2022-07-29T12:55:49;27.70;70.90
19813;DHT22;10066;48.108;11.448;2022-07-29T12:58:34;27.40;71.20
19813;DHT22;10066;48.108;11.448;2022-07-29T13:01:04;27.10;72.30
19813;DHT22;10066;48.108;11.448;2022-07-29T13:03:43;27.00;75.90
19813;DHT22;10066;48.108;11.448;2022-07-29T13:06:31;27.20;74.30
19813;DHT22;10066;48.108;11.448;2022-07-29T13:09:04;27.20;73.60
19813;DHT22;10066;48.108;11.448;2022-07-29T13:11:33;27.30;73.50
19813;DHT22;10066;48.108;11.448;2022-07-29T13:14:02;27.20;73.50
19813;DHT22;10066;48.108;11.448;2022-07-29T13:16:29;27.20;73.60
19813;DHT22;10066;48.108;11.448;2022-07-29T13:19:09;27.10;72.90
19813;DHT22;10066;48.108;11.448;2022-07-29T13:21:38;27.00;73.30
19813;DHT22;10066;48.108;11.448;2022-07-29T13:24:06;26.80;72.70
19813;DHT22;10066;48.108;11.448;2022-07-29T13:26:33;26.70;72.60
19813;DHT22;10066;48.108;11.448;2022-07-29T13:31:29;26.50;72.80
19813;DHT22;10066;48.108;11.448;2022-07-29T13:33:58;26.40;74.00
19813;DHT22;10066;48.108;11.448;2022-07-29T13:36:24;26.40;74.20
19813;DHT22;10066;48.108;11.448;2022-07-29T13:38:52;26.30;74.70
19813;DHT22;10066;48.108;11.448;2022-07-29T13:41:19;26.30;75.20
19813;DHT22;10066;48.108;11.448;2022-07-29T13:43:46;26.30;75.20
19813;DHT22;10066;48.108;11.448;2022-07-29T13:46:14;26.20;75.70
19813;DHT22;10066;48.108;11.448;2022-07-29T13:48:41;26.20;76.20
19813;DHT22;10066;48.108;11.448;2022-07-29T13:51:08;26.20;76.80
19813;DHT22;10066;48.108;11.448;2022-07-29T13:53:35;26.10;77.20
19813;DHT22;10066;48.108;11.448;2022-07-29T13:56:02;26.00;77.40
19813;DHT22;10066;48.108;11.448;2022-07-29T13:58:31;26.00;77.90
19813;DHT22;10066;48.108;11.448;2022-07-29T14:00:58;26.10;78.10
19813;DHT22;10066;48.108;11.448;2022-07-29T14:03:27;26.20;79.10
19813;DHT22;10066;48.108;11.448;2022-07-29T14:05:54;26.30;78.60
19813;DHT22;10066;48.108;11.448;2022-07-29T14:08:21;26.40;78.80
19813;DHT22;10066;48.108;11.448;2022-07-29T14:10:49;26.50;78.90
19813;DHT22;10066;48.108;11.448;2022-07-29T14:13:16;26.70;78.50
19813;DHT22;10066;48.108;11.448;2022-07-29T14:15:43;26.80;78.90
19813;DHT22;10066;48.108;11.448;2022-07-29T14:18:10;26.90;79.10
19813;DHT22;10066;48.108;11.448;2022-07-29T14:20:38;26.90;78.70
19813;DHT22;10066;48.108;11.448;2022-07-29T14:23:05;26.80;76.60
19813;DHT22;10066;48.108;11.448;2022-07-29T14:25:32;26.80;77.10
19813;DHT22;10066;48.108;11.448;2022-07-29T14:27:59;26.70;77.10
19813;DHT22;10066;48.108;11.448;2022-07-29T14:30:26;26.70;76.90
19813;DHT22;10066;48.108;11.448;2022-07-29T14:32:53;26.80;77.20
19813;DHT22;10066;48.108;11.448;2022-07-29T14:35:20;26.80;78.00
19813;DHT22;10066;48.108;11.448;2022-07-29T14:37:49;26.90;77.20
19813;DHT22;10066;48.108;11.448;2022-07-29T14:40:17;26.80;76.40
19813;DHT22;10066;48.108;11.448;2022-07-29T14:42:43;26.80;75.90
19813;DHT22;10066;48.108;11.448;2022-07-29T14:45:11;26.80;75.20
19813;DHT22;10066;48.108;11.448;2022-07-29T14:47:38;26.70;75.00
19813;DHT22;10066;48.108;11.448;2022-07-29T14:50:06;26.70;74.80
19813;DHT22;10066;48.108;11.448;2022-07-29T14:52:33;26.60;73.80
19813;DHT22;10066;48.108;11.448;2022-07-29T14:55:03;26.60;74.20
19813;DHT22;10066;48.108;11.448;2022-07-29T14:57:30;26.60;74.70
19813;DHT22;10066;48.108;11.448;2022-07-29T14:59:57;26.50;73.50
19813;DHT22;10066;48.108;11.448;2022-07-29T15:02:24;26.50;74.60
19813;DHT22;10066;48.108;11.448;2022-07-29T15:04:52;26.50;75.70
19813;DHT22;10066;48.108;11.448;2022-07-29T15:07:19;26.50;75.90
19813;DHT22;10066;48.108;11.448;2022-07-29T15:09:45;26.50;76.40
19813;DHT22;10066;48.108;11.448;2022-07-29T15:12:14;26.50;76.30
19813;DHT22;10066;48.108;11.448;2022-07-29T15:14:41;26.50;75.90
19813;DHT22;10066;48.108;11.448;2022-07-29T15:17:08;26.50;76.60
19813;DHT22;10066;48.108;11.448;2022-07-29T15:19:35;26.50;76.70
19813;DHT22;10066;48.108;11.448;2022-07-29T15:22:02;26.60;76.10
19813;DHT22;10066;48.108;11.448;2022-07-29T15:24:30;26.50;76.00
19813;DHT22;10066;48.108;11.448;2022-07-29T15:26:57;26.40;76.20
19813;DHT22;10066;48.108;11.448;2022-07-29T15:29:26;26.40;76.40
19813;DHT22;10066;48.108;11.448;2022-07-29T15:31:53;26.30;76.40
19813;DHT22;10066;48.108;11.448;2022-07-29T15:34:20;26.20;76.70
19813;DHT22;10066;48.108;11.448;2022-07-29T15:36:49;26.20;77.40
19813;DHT22;10066;48.108;11.448;2022-07-29T15:39:16;26.10;77.50
19813;DHT22;10066;48.108;11.448;2022-07-29T15:41:43;26.10;77.60
19813;DHT22;10066;48.108;11.448;2022-07-29T15:44:10;26.00;77.90